Time;durP1;ratioP1;P1;durP2;ratioP2;P2;SDS_P1;SDS_P2;PMS_P1;PMS_P2;Temp;Humidity;BMP_temperature;BMP_pressure;BME280_temperature;BME280_humidity;BME280_pressure;Samples;Min_cycle;Max_cycle;Signal;HPM_P1;HPM_P2
2023/12/07 00:02:23;;;;;;;;;45.25;40.75;;;;;-143.90;100.00;76938.16;4934434;28;102062;-77
2023/12/07 00:04:50;;;;;;;;;41.67;29.00;;;;;-143.90;100.00;76938.16;4932306;28;103650;-76
2023/12/07 00:07:17;;;;;;;;;54.67;39.33;;;;;-143.90;100.00;76944.38;4931657;28;101891;-76
2023/12/07 00:09:44;;;;;;;;;35.33;28.33;;;;;-143.90;100.00;76946.44;4932723;28;101592;-76
2023/12/07 00:12:10;;;;;;;;;34.67;26.33;;;;;-143.90;100.00;76934.03;4933902;28;102755;-76
2023/12/07 00:14:37;;;;;;;;;35.00;29.00;;;;;-143.90;100.00;76942.31;4930964;28;103383;-76
2023/12/07 00:17:03;;;;;;;;;23.00;19.33;;;;;-143.90;100.00;76931.97;4932661;28;102013;-77
2023/12/07 00:19:30;;;;;;;;;23.33;17.33;;;;;-143.90;100.00;76934.03;4928468;28;105979;-76
2023/12/07 00:21:57;;;;;;;;;30.67;28.33;;;;;-143.90;100.00;76938.16;4932382;28;101738;-76
2023/12/07 00:24:24;;;;;;;;;34.33;30.67;;;;;-143.90;100.00;76938.16;4932754;28;102878;-76
2023/12/07 00:26:51;;;;;;;;;23.00;20.67;;;;;-143.90;100.00;76929.91;4934852;28;102024;-76
2023/12/07 00:29:17;;;;;;;;;19.67;16.67;;;;;-143.90;100.00;76934.03;4933125;28;101447;-76
2023/12/07 00:31:44;;;;;;;;;30.33;22.00;;;;;-143.90;100.00;76938.16;4934279;28;101986;-77
2023/12/07 00:34:11;;;;;;;;;25.67;22.67;;;;;-143.90;100.00;76936.09;4930668;28;103377;-76
2023/12/07 00:36:39;;;;;;;;;30.67;24.67;;;;;-143.90;100.00;76938.16;4930354;28;101843;-75
2023/12/07 00:39:06;;;;;;;;;33.33;27.33;;;;;-143.90;100.00;76940.25;4933111;28;102179;-74
2023/12/07 00:41:33;;;;;;;;;44.67;35.00;;;;;-143.90;100.00;76948.50;4933635;28;101477;-77
2023/12/07 00:43:59;;;;;;;;;53.67;37.00;;;;;-143.90;100.00;76944.38;4930891;28;103357;-76
2023/12/07 00:46:26;;;;;;;;;33.67;25.67;;;;;-143.90;100.00;76934.03;4931019;28;103317;-76
2023/12/07 00:48:53;;;;;;;;;61.75;47.25;;;;;-143.90;100.00;76929.91;4931889;28;101718;-76
2023/12/07 00:51:19;;;;;;;;;44.33;38.33;;;;;-143.90;100.00;76936.09;4930608;28;101950;-76
2023/12/07 00:53:46;;;;;;;;;50.67;42.67;;;;;-143.90;100.00;76929.91;4930240;28;103879;-76
2023/12/07 00:56:12;;;;;;;;;50.33;42.33;;;;;-143.90;100.00;76929.91;4933361;28;101994;-76
2023/12/07 00:58:39;;;;;;;;;52.00;42.25;;;;;-143.90;100.00;76938.16;4931376;28;101891;-76
2023/12/07 01:01:06;;;;;;;;;67.75;47.25;;;;;-143.90;100.00;76942.31;4933087;28;102872;-75
2023/12/07 01:03:32;;;;;;;;;47.00;35.33;;;;;-143.90;100.00;76946.44;4933085;28;107985;-76
2023/12/07 01:05:59;;;;;;;;;39.33;33.33;;;;;-143.90;100.00;76942.31;4931167;28;101779;-76
2023/12/07 01:08:26;;;;;;;;;37.00;33.67;;;;;-143.90;100.00;76948.50;4930426;28;101852;-76
2023/12/07 01:10:52;;;;;;;;;49.33;41.00;;;;;-143.90;100.00;76946.44;4933210;28;103045;-76
2023/12/07 01:13:19;;;;;;;;;47.75;40.75;;;;;-143.90;100.00;76942.31;4931108;28;103603;-76
2023/12/07 01:15:46;;;;;;;;;63.00;39.00;;;;;-143.90;100.00;76950.56;4932417;28;102116;-76
2023/12/07 01:18:12;;;;;;;;;49.33;32.67;;;;;-143.90;100.00;76940.25;4929561;28;101956;-75
2023/12/07 01:20:39;;;;;;;;;49.33;31.33;;;;;-143.90;100.00;76938.16;4932471;28;101650;-75
2023/12/07 01:23:06;;;;;;;;;44.00;33.33;;;;;-143.90;100.00;76934.03;4928223;28;103426;-76
2023/12/07 01:25:32;;;;;;;;;37.67;29.00;;;;;-143.90;100.00;76936.09;4918673;28;102358;-76
2023/12/07 01:27:59;;;;;;;;;31.00;25.33;;;;;-143.90;100.00;76931.97;4926625;28;101889;-76
2023/12/07 01:30:26;;;;;;;;;22.67;22.00;;;;;-143.90;100.00;76925.75;4926350;28;101766;-76
2023/12/07 01:32:52;;;;;;;;;30.67;25.67;;;;;-143.90;100.00;76921.63;4926765;28;103359;-75
2023/12/07 01:35:19;;;;;;;;;33.67;24.00;;;;;-143.90;100.00;76921.63;4924764;28;103001;-75
2023/12/07 01:37:46;;;;;;;;;31.67;25.00;;;;;-143.90;100.00;76923.69;4928467;28;102171;-73
2023/12/07 01:40:14;;;;;;;;;16.33;11.67;;;;;-143.90;100.00;76919.56;4930287;28;101742;-75
2023/12/07 01:42:50;;;;;;;;;37.00;27.33;;;;;-143.90;100.00;76915.41;4925191;28;107965;-75
2023/12/07 01:45:16;;;;;;;;;32.67;24.33;;;;;-143.90;100.00;76921.63;4922620;28;102250;-73
2023/12/07 01:47:44;;;;;;;;;44.00;29.33;;;;;-143.90;100.00;76925.75;4929608;28;102005;-75
2023/12/07 01:50:11;;;;;;;;;46.33;33.67;;;;;-143.90;100.00;76927.81;4927263;28;101553;-74
2023/12/07 01:52:44;;;;;;;;;46.00;34.33;;;;;-143.90;100.00;76929.91;4927621;28;103423;-76
2023/12/07 01:55:12;;;;;;;;;39.33;29.33;;;;;-143.90;100.00;76917.47;4924700;28;101796;-76
2023/12/07 01:57:40;;;;;;;;;25.33;16.33;;;;;-143.90;100.00;76917.47;4924824;28;101752;-76
2023/12/07 02:00:09;;;;;;;;;20.67;16.33;;;;;-143.90;100.00;76913.34;4929005;28;101994;-76
2023/12/07 02:02:36;;;;;;;;;19.00;17.00;;;;;-143.90;100.00;76909.22;4923802;28;102998;-75
2023/12/07 02:05:04;;;;;;;;;10.00;8.00;;;;;-143.90;100.00;76903.00;4920225;28;102031;-76
2023/12/07 02:07:31;;;;;;;;;11.33;10.33;;;;;-143.90;100.00;76900.94;4919491;28;101788;-75
2023/12/07 02:09:58;;;;;;;;;16.00;15.33;;;;;-143.90;100.00;76905.06;4928023;28;101881;-76
2023/12/07 02:12:25;;;;;;;;;23.00;20.00;;;;;-143.90;100.00;76915.41;4929437;28;103523;-76
2023/12/07 02:14:53;;;;;;;;;40.00;26.67;;;;;-143.90;100.00;76929.91;4930155;28;101906;-76
2023/12/07 02:17:36;;;;;;;;;30.00;23.67;;;;;-143.90;100.00;76931.97;4929828;28;101921;-75
2023/12/07 02:20:21;;;;;;;;;27.33;21.33;;;;;-143.90;100.00;76929.91;4931163;28;101831;-76
2023/12/07 02:22:54;;;;;;;;;24.00;19.00;;;;;-143.90;100.00;76921.63;4925030;28;108640;-75
2023/12/07 02:25:31;;;;;;;;;22.33;11.00;;;;;-143.90;100.00;76925.75;4929595;28;102506;-75
2023/12/07 02:27:58;;;;;;;;;24.33;17.00;;;;;-143.90;100.00;76919.56;4931287;28;101538;-75
2023/12/07 02:30:24;;;;;;;;;20.67;13.00;;;;;-143.90;100.00;76915.41;4929379;28;101817;-75
2023/12/07 02:32:51;;;;;;;;;23.00;17.67;;;;;-143.90;100.00;76919.56;4928855;28;103493;-76
2023/12/07 02:35:18;;;;;;;;;22.33;17.67;;;;;-143.90;100.00;76913.34;4930413;28;101988;-74
2023/12/07 02:37:47;;;;;;;;;15.67;14.33;;;;;-143.90;100.00;76911.28;4930913;28;101650;-74
2023/12/07 02:40:17;;;;;;;;;16.00;12.33;;;;;-143.90;100.00;76911.28;4930405;28;101685;-74
2023/12/07 02:42:45;;;;;;;;;17.67;13.00;;;;;-143.90;100.00;76911.28;4929510;28;107923;-75
2023/12/07 02:45:13;;;;;;;;;18.00;13.33;;;;;-143.90;100.00;76917.47;4928807;28;103152;-75
2023/12/07 02:47:39;;;;;;;;;28.00;20.00;;;;;-143.90;100.00;76925.75;4927641;28;101436;-75
2023/12/07 02:50:07;;;;;;;;;28.67;23.00;;;;;-143.90;100.00;76934.03;4868505;28;102074;-74
2023/12/07 02:52:34;;;;;;;;;20.67;17.67;;;;;-143.90;100.00;76923.69;4876526;28;104518;-75
2023/12/07 02:55:02;;;;;;;;;33.67;22.67;;;;;-143.90;100.00;76925.75;4930079;28;102145;-75
2023/12/07 02:57:29;;;;;;;;;25.33;16.00;;;;;-143.90;100.00;76917.47;4928632;28;101570;-75
2023/12/07 02:59:56;;;;;;;;;20.33;16.00;;;;;-143.90;100.00;76921.63;4931781;28;101548;-75
2023/12/07 03:02:23;;;;;;;;;26.00;16.00;;;;;-143.90;100.00;76927.81;4928060;28;103471;-75
2023/12/07 03:04:50;;;;;;;;;21.67;14.00;;;;;-143.90;100.00;76925.75;4927390;28;101826;-75
2023/12/07 03:07:17;;;;;;;;;26.33;14.00;;;;;-143.90;100.00;76929.91;4928058;28;102544;-75
2023/12/07 03:09:43;;;;;;;;;16.00;13.00;;;;;-143.90;100.00;76929.91;4934029;28;101555;-75
2023/12/07 03:12:10;;;;;;;;;19.67;13.67;;;;;-143.90;100.00;76934.03;4930277;28;103694;-74
2023/12/07 03:14:37;;;;;;;;;20.00;17.00;;;;;-143.90;100.00;76934.03;4928794;28;102303;-75
2023/12/07 03:17:04;;;;;;;;;26.00;22.33;;;;;-143.90;100.00;76946.44;4931797;28;102776;-76
2023/12/07 03:19:30;;;;;;;;;29.33;22.67;;;;;-143.90;100.00;76940.25;4932178;28;101735;-76
2023/12/07 03:21:57;;;;;;;;;38.33;29.33;;;;;-143.90;100.00;76952.66;4930815;28;103392;-76
2023/12/07 03:24:24;;;;;;;;;34.33;25.33;;;;;-143.90;100.00;76948.50;4931062;28;101745;-74
2023/12/07 03:26:50;;;;;;;;;25.67;13.67;;;;;-143.90;100.00;76942.31;4930874;28;101535;-75
2023/12/07 03:29:17;;;;;;;;;29.33;20.00;;;;;-143.90;100.00;76936.09;4932099;28;101927;-74
2023/12/07 03:31:44;;;;;;;;;21.00;17.67;;;;;-143.90;100.00;76929.91;4932391;28;103526;-74
2023/12/07 03:34:12;;;;;;;;;25.67;18.00;;;;;-143.90;100.00;76923.69;4930646;28;102446;-75
2023/12/07 03:36:39;;;;;;;;;23.00;14.67;;;;;-143.90;100.00;76921.63;4928618;28;101726;-74
2023/12/07 03:39:05;;;;;;;;;15.33;10.33;;;;;-143.90;100.00;76921.63;4929014;28;102011;-75
2023/12/07 03:41:32;;;;;;;;;4.33;3.33;;;;;-143.90;100.00;76921.63;4929998;28;103233;-75
2023/12/07 03:43:59;;;;;;;;;10.67;8.67;;;;;-143.90;100.00;76913.34;4930044;28;101758;-76
2023/12/07 03:46:25;;;;;;;;;11.00;7.00;;;;;-143.90;100.00;76917.47;4927919;28;102011;-75
2023/12/07 03:48:52;;;;;;;;;7.00;5.00;;;;;-143.90;100.00;76919.56;4933164;28;102098;-75
2023/12/07 03:51:19;;;;;;;;;13.00;10.00;;;;;-143.90;100.00;76921.63;4932989;28;103343;-74
2023/12/07 03:53:45;;;;;;;;;13.67;11.00;;;;;-143.90;100.00;76929.91;4935806;28;101813;-75
2023/12/07 03:56:25;;;;;;;;;16.67;12.33;;;;;-143.90;100.00;76921.63;4933783;28;102609;-75
2023/12/07 03:58:52;;;;;;;;;5.00;3.33;;;;;-143.90;100.00;76925.75;4929603;28;101848;-75
2023/12/07 04:01:23;;;;;;;;;13.00;11.67;;;;;-143.90;100.00;76927.81;4934038;28;103459;-75
2023/12/07 04:03:54;;;;;;;;;14.00;10.33;;;;;-143.90;100.00;76931.97;4932025;28;102104;-75
2023/12/07 04:06:22;;;;;;;;;14.67;10.00;;;;;-143.90;100.00;76938.16;4929990;28;101787;-75
2023/12/07 04:08:49;;;;;;;;;24.67;22.00;;;;;-143.90;100.00;76946.44;4934416;28;101581;-75
2023/12/07 04:11:16;;;;;;;;;14.67;13.33;;;;;-143.90;100.00;76938.16;4937550;28;103261;-74
2023/12/07 04:13:43;;;;;;;;;24.33;19.00;;;;;-143.90;100.00;76944.38;4929479;28;101793;-75
2023/12/07 04:16:11;;;;;;;;;25.00;18.33;;;;;-143.90;100.00;76952.66;4933030;28;101501;-75
2023/12/07 04:18:37;;;;;;;;;41.00;32.00;;;;;-143.90;100.00;76958.84;4933644;28;102163;-75
2023/12/07 04:21:07;;;;;;;;;31.67;28.67;;;;;-143.90;100.00;76956.78;4931809;28;103517;-75
2023/12/07 04:23:34;;;;;;;;;31.00;23.33;;;;;-143.90;100.00;76960.91;4932709;28;102158;-75
2023/12/07 04:26:00;;;;;;;;;27.33;19.33;;;;;-143.90;100.00;76952.66;4933247;28;101790;-75
2023/12/07 04:28:27;;;;;;;;;27.67;22.33;;;;;-143.90;100.00;76963.00;4934147;28;102089;-74
2023/12/07 04:30:54;;;;;;;;;39.00;25.33;;;;;-143.90;100.00;76960.91;4934045;28;103290;-75
2023/12/07 04:33:20;;;;;;;;;56.00;41.33;;;;;-143.90;100.00;76963.00;4931377;28;102374;-74
2023/12/07 04:35:47;;;;;;;;;41.00;29.67;;;;;-143.90;100.00;76954.72;4933624;28;101875;-73
2023/12/07 04:38:14;;;;;;;;;29.00;22.00;;;;;-143.90;100.00;76958.84;4936368;28;102524;-74
2023/12/07 04:40:41;;;;;;;;;53.67;36.00;;;;;-143.90;100.00;76967.13;4931835;28;103272;-75
2023/12/07 04:43:09;;;;;;;;;48.33;33.67;;;;;-143.90;100.00;76971.25;4933012;28;101876;-74
2023/12/07 04:45:35;;;;;;;;;36.00;31.33;;;;;-143.90;100.00;76973.31;4930430;28;101537;-74
2023/12/07 04:48:03;;;;;;;;;28.00;22.00;;;;;-143.90;100.00;76967.13;4933318;28;101641;-74
2023/12/07 04:50:30;;;;;;;;;35.00;28.33;;;;;-143.90;100.00;76971.25;4931534;28;103387;-74
2023/12/07 04:52:57;;;;;;;;;43.33;32.67;;;;;-143.90;100.00;76971.25;4933184;28;102341;-74
2023/12/07 04:55:24;;;;;;;;;35.67;26.33;;;;;-143.90;100.00;76967.13;4930568;28;101891;-75
2023/12/07 04:57:51;;;;;;;;;42.33;27.67;;;;;-143.90;100.00;76973.31;4930871;28;101637;-75
2023/12/07 05:00:17;;;;;;;;;33.00;26.67;;;;;-143.90;100.00;76971.25;4932791;28;103788;-74
2023/12/07 05:02:44;;;;;;;;;28.67;25.67;;;;;-143.90;100.00;76975.41;4931414;28;101844;-75
2023/12/07 05:05:11;;;;;;;;;38.00;29.00;;;;;-143.90;100.00;76975.41;4930915;28;101894;-75
2023/12/07 05:07:38;;;;;;;;;34.33;21.33;;;;;-143.90;100.00;76979.53;4931741;28;102107;-75
2023/12/07 05:10:06;;;;;;;;;30.67;25.33;;;;;-143.90;100.00;76983.66;4929100;28;103364;-75
2023/12/07 05:12:32;;;;;;;;;34.33;28.00;;;;;-143.90;100.00;76989.88;4931444;28;101887;-75
2023/12/07 05:14:59;;;;;;;;;26.00;17.33;;;;;-143.90;100.00;76987.81;4931103;28;101605;-74
2023/12/07 05:17:26;;;;;;;;;29.00;20.67;;;;;-143.90;100.00;76996.09;4932625;28;101623;-75
2023/12/07 05:19:52;;;;;;;;;34.33;32.67;;;;;-143.90;100.00;77004.34;4930384;28;103445;-75
2023/12/07 05:22:19;;;;;;;;;50.00;40.67;;;;;-143.90;100.00;77012.63;4930860;28;102013;-75
2023/12/07 05:24:46;;;;;;;;;51.00;33.67;;;;;-143.90;100.00;77010.56;4933123;28;101775;-75
2023/12/07 05:27:12;;;;;;;;;42.00;33.67;;;;;-143.90;100.00;77012.63;4928977;28;101852;-75
2023/12/07 05:29:39;;;;;;;;;30.00;23.67;;;;;-143.90;100.00;77008.50;4931090;28;103419;-76
2023/12/07 05:32:06;;;;;;;;;30.00;25.33;;;;;-143.90;100.00;77010.56;4925039;28;101913;-74
2023/12/07 05:34:35;;;;;;;;;30.00;22.00;;;;;-143.90;100.00;77012.63;4931511;28;101840;-75
2023/12/07 05:37:02;;;;;;;;;26.67;26.67;;;;;-143.90;100.00;77016.75;4930838;28;101828;-75
2023/12/07 05:39:28;;;;;;;;;46.00;35.00;;;;;-143.90;100.00;77022.97;4928727;28;104183;-75
2023/12/07 05:41:55;;;;;;;;;47.00;35.33;;;;;-143.90;100.00;77020.91;4925923;28;101831;-76
2023/12/07 05:44:22;;;;;;;;;39.33;30.33;;;;;-143.90;100.00;77016.75;4928341;28;105745;-75
2023/12/07 05:46:49;;;;;;;;;50.33;34.33;;;;;-143.90;100.00;77018.84;4933015;28;101629;-74
2023/12/07 05:49:16;;;;;;;;;45.00;34.00;;;;;-143.90;100.00;77020.91;4932268;28;103551;-75
2023/12/07 05:51:43;;;;;;;;;37.67;33.67;;;;;-143.90;100.00;77020.91;4930602;28;102081;-75
2023/12/07 05:54:09;;;;;;;;;49.67;40.00;;;;;-143.90;100.00;77020.91;4930492;28;102386;-75
2023/12/07 05:56:36;;;;;;;;;50.33;44.00;;;;;-143.90;100.00;77022.97;4929866;28;101545;-75
2023/12/07 05:59:02;;;;;;;;;48.00;38.00;;;;;-143.90;100.00;77020.91;4930521;28;103393;-76
2023/12/07 06:01:30;;;;;;;;;45.67;27.33;;;;;-143.90;100.00;77020.91;4932995;28;101781;-76
2023/12/07 06:03:57;;;;;;;;;32.33;23.00;;;;;-143.90;100.00;77027.09;4930522;28;101901;-75
2023/12/07 06:06:24;;;;;;;;;57.00;39.00;;;;;-143.90;100.00;77033.31;4931394;28;101766;-76
2023/12/07 06:08:51;;;;;;;;;59.50;47.50;;;;;-143.90;100.00;77041.59;4928510;28;103578;-75
2023/12/07 06:11:17;;;;;;;;;62.67;44.33;;;;;-143.90;100.00;77039.50;4932337;28;102382;-74
2023/12/07 06:13:44;;;;;;;;;54.33;39.67;;;;;-143.90;100.00;77037.44;4933429;28;101689;-76
2023/12/07 06:16:14;;;;;;;;;47.33;39.33;;;;;-143.90;100.00;77035.38;4932217;28;101564;-76
2023/12/07 06:18:41;;;;;;;;;48.00;40.67;;;;;-143.90;100.00;77035.38;4927115;28;103906;-75
2023/12/07 06:21:08;;;;;;;;;58.33;33.67;;;;;-143.90;100.00;77027.09;4930607;28;103073;-75
2023/12/07 06:23:35;;;;;;;;;46.67;33.33;;;;;-143.90;100.00;77025.03;4930549;28;102564;-75
2023/12/07 06:26:02;;;;;;;;;46.00;35.67;;;;;-143.90;100.00;77029.19;4933046;28;101881;-76
2023/12/07 06:28:29;;;;;;;;;49.00;35.00;;;;;-143.90;100.00;77029.19;4932456;28;103495;-76
2023/12/07 06:30:57;;;;;;;;;37.00;32.67;;;;;-143.90;100.00;77037.44;4932002;28;101914;-75
2023/12/07 06:33:24;;;;;;;;;33.00;29.33;;;;;-143.90;100.00;77027.09;4930860;28;101643;-75
2023/12/07 06:35:50;;;;;;;;;45.67;37.33;;;;;-143.90;100.00;77029.19;4931965;28;102137;-76
2023/12/07 06:38:17;;;;;;;;;39.33;29.33;;;;;-143.90;100.00;77020.91;4930882;28;103360;-74
2023/12/07 06:40:47;;;;;;;;;24.67;17.00;;;;;-143.90;100.00;77020.91;4931313;28;102055;-74
2023/12/07 06:43:14;;;;;;;;;28.33;26.67;;;;;-143.90;100.00;77025.03;4932042;28;102757;-76
2023/12/07 06:45:41;;;;;;;;;32.00;25.00;;;;;-143.90;100.00;77016.75;4932317;28;101575;-75
2023/12/07 06:48:08;;;;;;;;;34.00;27.00;;;;;-143.90;100.00;77018.84;4929518;28;103737;-76
2023/12/07 06:50:35;;;;;;;;;46.67;32.33;;;;;-143.90;100.00;77016.75;4929782;28;102013;-76
2023/12/07 06:53:01;;;;;;;;;36.33;24.67;;;;;-143.90;100.00;77012.63;4930303;28;101405;-75
2023/12/07 06:55:28;;;;;;;;;49.00;34.00;;;;;-143.90;100.00;77016.75;4931416;28;101748;-76
2023/12/07 06:57:55;;;;;;;;;41.33;33.67;;;;;-143.90;100.00;77010.56;4931244;28;103273;-75
2023/12/07 07:00:22;;;;;;;;;34.00;27.00;;;;;-143.90;100.00;77006.41;4930316;28;101791;-75
2023/12/07 07:02:48;;;;;;;;;28.33;23.00;;;;;-143.90;100.00;77004.34;4929112;28;102794;-74
2023/12/07 07:05:16;;;;;;;;;28.67;26.00;;;;;-143.90;100.00;76996.09;4932083;28;101831;-76
2023/12/07 07:07:42;;;;;;;;;35.33;26.33;;;;;-143.90;100.00;76996.09;4931262;28;108111;-76
2023/12/07 07:10:10;;;;;;;;;26.00;22.00;;;;;-143.90;100.00;76987.81;4929930;28;101886;-76
2023/12/07 07:12:36;;;;;;;;;25.33;22.33;;;;;-143.90;100.00;76985.75;4942509;28;102037;-76
2023/12/07 07:15:03;;;;;;;;;44.00;32.00;;;;;-143.90;100.00;76983.66;4931159;28;101575;-76
2023/12/07 07:17:32;;;;;;;;;36.67;25.00;;;;;-143.90;100.00;76975.41;4930255;28;103099;-76
2023/12/07 07:19:59;;;;;;;;;25.33;20.00;;;;;-143.90;100.00;76979.53;4929187;28;101948;-76
2023/12/07 07:22:25;;;;;;;;;36.67;23.00;;;;;-143.90;100.00;76975.41;4931033;28;102002;-75
2023/12/07 07:24:52;;;;;;;;;31.67;25.33;;;;;-143.90;100.00;76960.91;4939844;28;102143;-75
2023/12/07 07:27:19;;;;;;;;;28.00;20.67;;;;;-143.90;100.00;76956.78;4930690;28;103441;-76
2023/12/07 07:29:46;;;;;;;;;26.67;23.33;;;;;-143.90;100.00;76942.31;4935812;28;102107;-76
2023/12/07 07:32:12;;;;;;;;;27.00;21.67;;;;;-143.90;100.00;76931.97;4933150;28;101976;-77
2023/12/07 07:34:39;;;;;;;;;30.33;24.33;;;;;-143.90;100.00;76936.09;4933163;28;101606;-77
2023/12/07 07:37:07;;;;;;;;;50.00;35.33;;;;;-143.90;100.00;76944.38;4934201;28;103471;-76
2023/12/07 07:39:34;;;;;;;;;30.33;27.00;;;;;-143.90;100.00;76934.03;4934211;28;101808;-76
2023/12/07 07:42:01;;;;;;;;;37.33;28.33;;;;;-143.90;100.00;76927.81;4933726;28;102494;-77
2023/12/07 07:44:27;;;;;;;;;32.67;26.00;;;;;-143.90;100.00;76917.47;4933944;28;104254;-76
2023/12/07 07:46:54;;;;;;;;;37.00;27.00;;;;;-143.90;100.00;76925.75;4929775;28;103382;-76
2023/12/07 07:49:20;;;;;;;;;37.33;32.33;;;;;-143.90;100.00;76929.91;4933276;28;101944;-76
2023/12/07 07:51:47;;;;;;;;;30.67;23.33;;;;;-143.90;100.00;76919.56;4931416;28;101855;-75
2023/12/07 07:54:14;;;;;;;;;28.67;25.00;;;;;-143.90;100.00;76909.22;4935768;28;102565;-77
2023/12/07 07:56:40;;;;;;;;;49.67;41.00;;;;;-143.90;100.00;76925.75;4934113;28;103419;-77
2023/12/07 07:59:07;;;;;;;;;40.67;33.33;;;;;-143.90;100.00;76925.75;4933376;28;101830;-77
2023/12/07 08:01:33;;;;;;;;;54.33;40.00;;;;;-143.90;100.00;76919.56;4934255;28;101701;-77
2023/12/07 08:04:00;;;;;;;;;46.67;34.67;;;;;-143.90;100.00;76900.94;4932648;28;101647;-77
2023/12/07 08:06:27;;;;;;;;;50.00;40.67;;;;;-143.90;100.00;76900.94;4931702;28;103435;-76
2023/12/07 08:08:53;;;;;;;;;58.67;49.33;;;;;-143.90;100.00;76900.94;4933096;28;101986;-77
2023/12/07 08:11:20;;;;;;;;;77.00;58.25;;;;;-143.90;100.00;76925.75;4932780;28;101885;-77
2023/12/07 08:13:46;;;;;;;;;66.50;53.75;;;;;-143.90;100.00;76905.06;4936736;28;102001;-77
2023/12/07 08:16:13;;;;;;;;;62.00;45.00;;;;;-143.90;100.00;76892.66;4931070;28;107867;-77
2023/12/07 08:18:39;;;;;;;;;66.00;48.00;;;;;-143.90;100.00;76894.72;4935865;28;102832;-77
2023/12/07 08:21:08;;;;;;;;;61.00;44.00;;;;;-143.90;100.00;76888.53;4930181;28;101793;-77
2023/12/07 08:23:35;;;;;;;;;64.67;44.00;;;;;-143.90;100.00;76863.72;4931824;28;101480;-76
2023/12/07 08:26:02;;;;;;;;;61.00;36.33;;;;;-143.90;100.00;76855.44;4932084;28;103302;-77
2023/12/07 08:28:28;;;;;;;;;50.33;32.33;;;;;-143.90;100.00;76847.16;4930934;28;102472;-77
2023/12/07 08:30:55;;;;;;;;;40.33;27.67;;;;;-143.90;100.00;76845.09;4930572;28;102151;-77
2023/12/07 08:33:22;;;;;;;;;61.33;45.33;;;;;-143.90;100.00;76888.53;4934234;28;102351;-77
2023/12/07 08:35:54;;;;;;;;;71.67;52.67;;;;;-143.90;100.00;76909.22;4931095;28;103355;-75
2023/12/07 08:38:22;;;;;;;;;79.75;56.25;;;;;-143.90;100.00;76919.56;4931076;28;101928;-75
2023/12/07 08:40:49;;;;;;;;;73.67;55.00;;;;;-143.90;100.00;76917.47;4931904;28;101856;-76
2023/12/07 08:43:15;;;;;;;;;74.33;53.67;;;;;-143.90;100.00;76927.81;4935010;28;101890;-77
2023/12/07 08:45:42;;;;;;;;;64.33;48.00;;;;;-143.90;100.00;76907.16;4930768;28;107910;-77
2023/12/07 08:48:09;;;;;;;;;64.00;48.33;;;;;-143.90;100.00;76900.94;4932519;28;101601;-76
2023/12/07 08:50:36;;;;;;;;;56.67;45.00;;;;;-143.90;100.00;76896.81;4931600;28;102502;-77
2023/12/07 08:53:03;;;;;;;;;69.67;45.00;;;;;-143.90;100.00;76900.94;4935600;28;101827;-77
2023/12/07 08:55:31;;;;;;;;;71.75;52.00;;;;;-143.90;100.00;76917.47;4930372;28;103283;-77
2023/12/07 08:57:59;;;;;;;;;78.00;57.00;;;;;-143.90;100.00;76946.44;4932246;28;106952;-77
2023/12/07 09:00:26;;;;;;;;;69.75;50.25;;;;;-143.90;100.00;76913.34;4933111;28;101981;-77
2023/12/07 09:02:52;;;;;;;;;64.67;49.67;;;;;-143.90;100.00;76898.88;4933508;28;101965;-76
2023/12/07 09:05:19;;;;;;;;;65.00;46.00;;;;;-143.90;100.00;76892.66;4932246;28;103727;-75
2023/12/07 09:07:46;;;;;;;;;72.00;49.67;;;;;-143.90;100.00;76880.25;4932774;28;102421;-77
2023/12/07 09:10:13;;;;;;;;;62.67;47.00;;;;;-143.90;100.00;76876.13;4932738;28;101827;-76
2023/12/07 09:12:40;;;;;;;;;48.33;39.33;;;;;-143.90;100.00;76863.72;4933698;28;102553;-77
2023/12/07 09:15:07;;;;;;;;;52.33;41.00;;;;;-143.90;100.00;76851.31;4927503;28;103340;-77
2023/12/07 09:17:35;;;;;;;;;51.00;38.00;;;;;-143.90;100.00;76843.03;4931766;28;101866;-77
2023/12/07 09:20:01;;;;;;;;;64.00;48.33;;;;;-143.90;100.00;76865.78;4932555;28;101873;-77
2023/12/07 09:22:28;;;;;;;;;69.00;47.67;;;;;-143.90;100.00;76880.25;4932923;28;103094;-77
2023/12/07 09:25:04;;;;;;;;;64.00;47.33;;;;;-143.90;100.00;76861.63;4931568;28;103695;-78
2023/12/07 09:27:33;;;;;;;;;60.00;44.33;;;;;-143.90;100.00;76859.56;4932367;28;101821;-78
2023/12/07 09:30:00;;;;;;;;;69.00;49.33;;;;;-143.90;100.00;76888.53;4931949;28;102399;-78
2023/12/07 09:32:28;;;;;;;;;62.33;45.00;;;;;-143.90;100.00;76886.47;4932571;28;101563;-77
2023/12/07 09:35:03;;;;;;;;;70.00;53.00;;;;;-143.90;100.00;76892.66;4931216;28;103192;-77
2023/12/07 09:37:30;;;;;;;;;65.33;49.33;;;;;-143.90;100.00;76871.97;4932232;28;101875;-76
2023/12/07 09:39:57;;;;;;;;;41.00;41.00;;;;;-143.90;100.00;76863.72;4931691;28;101681;-77
2023/12/07 09:42:24;;;;;;;;;73.33;56.67;;;;;-143.90;100.00;76871.97;4932732;28;101839;-77
2023/12/07 09:44:57;;;;;;;;;75.67;55.00;;;;;-143.90;100.00;76878.19;4931287;28;103450;-77
2023/12/07 09:47:27;;;;;;;;;71.33;57.00;;;;;-143.90;100.00;76876.13;4930485;28;102067;-77
2023/12/07 09:50:02;;;;;;;;;63.67;48.67;;;;;-143.90;100.00;76863.72;4931450;28;101622;-77
2023/12/07 09:52:29;;;;;;;;;74.33;48.00;;;;;-143.90;100.00;76853.38;4933462;28;101625;-77
2023/12/07 09:54:56;;;;;;;;;64.67;38.67;;;;;-143.90;100.00;76855.44;4931660;28;103365;-77
2023/12/07 09:57:23;;;;;;;;;67.00;46.00;;;;;-143.90;100.00;76851.31;4931905;28;101853;-77
2023/12/07 09:59:52;;;;;;;;;64.00;48.33;;;;;-143.90;100.00;76857.50;4931401;28;106169;-76
2023/12/07 10:02:19;;;;;;;;;54.33;45.00;;;;;-143.90;100.00;76836.81;4932496;28;101886;-76
2023/12/07 10:04:45;;;;;;;;;62.00;46.00;;;;;-143.90;100.00;76830.63;4931429;28;103510;-77
2023/12/07 10:07:12;;;;;;;;;67.00;47.00;;;;;-143.90;100.00;76826.47;4931257;28;102091;-77
2023/12/07 10:09:42;;;;;;;;;72.67;54.00;;;;;-143.90;100.00;76843.03;4931935;28;101853;-77
2023/12/07 10:12:10;;;;;;;;;79.00;54.67;;;;;-143.90;100.00;76838.88;4934140;28;101773;-77
2023/12/07 10:14:38;;;;;;;;;64.67;48.67;;;;;-143.90;100.00;76843.03;4929299;28;103446;-77
2023/12/07 10:17:05;;;;;;;;;68.25;55.00;;;;;-143.90;100.00;76847.16;4932021;28;101882;-77
2023/12/07 10:19:32;;;;;;;;;69.00;52.00;;;;;-143.90;100.00;76824.41;4931031;28;101483;-77
2023/12/07 10:21:59;;;;;;;;;73.75;55.50;;;;;-143.90;100.00;76834.75;4929688;28;102136;-77
2023/12/07 10:24:27;;;;;;;;;71.67;53.00;;;;;-143.90;100.00;76818.22;4928487;28;103490;-77
2023/12/07 10:26:56;;;;;;;;;69.00;52.00;;;;;-143.90;100.00;76795.47;4928764;28;102594;-77
2023/12/07 10:29:29;;;;;;;;;73.67;53.67;;;;;-143.90;100.00;76778.91;4928018;28;101556;-77
2023/12/07 10:32:01;;;;;;;;;78.00;57.25;;;;;-143.90;100.00;76797.53;4932948;28;101950;-77
2023/12/07 10:34:27;;;;;;;;;71.00;55.67;;;;;-143.90;100.00;76780.97;4931394;28;103468;-77
2023/12/07 10:36:55;;;;;;;;;80.75;58.50;;;;;-143.90;100.00;76797.53;4932465;28;101792;-77
2023/12/07 10:39:24;;;;;;;;;73.00;54.00;;;;;-143.90;100.00;76791.31;4929320;28;101714;-77
2023/12/07 10:42:02;;;;;;;;;76.50;53.50;;;;;-143.90;100.00;76791.31;4930553;28;102050;-77
2023/12/07 10:44:32;;;;;;;;;91.25;64.00;;;;;-143.90;100.00;76816.13;4930197;28;103627;-77
2023/12/07 10:46:59;;;;;;;;;88.75;59.25;;;;;-143.90;100.00;76789.25;4929687;28;102414;-77
2023/12/07 10:49:27;;;;;;;;;85.00;63.25;;;;;-143.90;100.00;76805.78;4930048;28;101839;-78